Time;durP1;ratioP1;P1;durP2;ratioP2;P2;SDS_P1;SDS_P2;PMS_P1;PMS_P2;Temp;Humidity;BMP_temperature;BMP_pressure;BME280_temperature;BME280_humidity;BME280_pressure;Samples;Min_cycle;Max_cycle;Signal;HPM_P1;HPM_P2
2023/04/28 00:01:19;;;;;;;0.68;0.68;;;4.60;99.90;;;;;;5037915;28;20061;-86
2023/04/28 00:03:44;;;;;;;0.70;0.70;;;5.00;99.90;;;;;;5054840;28;20088;-84
2023/04/28 00:06:10;;;;;;;0.68;0.68;;;4.50;99.90;;;;;;5038056;28;20045;-85
2023/04/28 00:08:36;;;;;;;0.70;0.70;;;4.50;99.90;;;;;;5038650;28;20048;-85
2023/04/28 00:11:07;;;;;;;0.57;0.57;;;4.40;99.90;;;;;;5037797;28;20053;-85
2023/04/28 00:13:33;;;;;;;0.70;0.70;;;4.40;99.90;;;;;;5037212;28;20061;-88
2023/04/28 00:16:00;;;;;;;0.82;0.82;;;4.30;99.90;;;;;;5021281;28;20044;-87
2023/04/28 00:18:26;;;;;;;0.70;0.70;;;4.30;99.90;;;;;;5039319;28;20049;-86
2023/04/28 00:20:51;;;;;;;0.70;0.70;;;4.50;99.90;;;;;;5039014;28;20119;-88
2023/04/28 00:23:17;;;;;;;0.65;0.65;;;4.20;99.90;;;;;;5038816;28;20049;-82
2023/04/28 00:25:43;;;;;;;0.63;0.63;;;4.20;99.90;;;;;;5054033;28;20049;-83
2023/04/28 00:28:08;;;;;;;0.80;0.80;;;4.20;99.90;;;;;;5022039;28;20053;-85
2023/04/28 00:30:34;;;;;;;0.70;0.70;;;4.70;99.90;;;;;;5038020;28;20077;-87
2023/04/28 00:33:00;;;;;;;1.58;1.23;;;4.20;99.90;;;;;;5038463;28;20045;-87
2023/04/28 00:35:26;;;;;;;0.70;0.70;;;4.10;99.90;;;;;;5037277;28;20048;-87
2023/04/28 00:37:51;;;;;;;0.60;0.60;;;4.10;99.90;;;;;;5037693;28;20097;-86
2023/04/28 00:40:17;;;;;;;0.60;0.60;;;4.10;99.90;;;;;;5037555;28;20049;-87
2023/04/28 00:42:43;;;;;;;0.60;0.60;;;4.60;99.90;;;;;;5037315;28;20085;-85
2023/04/28 00:45:08;;;;;;;0.75;0.75;;;4.10;99.90;;;;;;5037055;28;20455;-88
2023/04/28 00:47:36;;;;;;;0.70;0.70;;;4.10;99.90;;;;;;5038216;28;20103;-86
2023/04/28 00:50:06;;;;;;;0.70;0.70;;;4.00;99.90;;;;;;5038837;28;20033;-86
2023/04/28 00:52:32;;;;;;;0.60;0.60;;;4.00;99.90;;;;;;5021665;28;20132;-84
2023/04/28 00:55:04;;;;;;;0.55;0.55;;;4.10;99.90;;;;;;5037776;28;20063;-87
2023/04/28 00:57:31;;;;;;;0.50;0.50;;;4.00;99.90;;;;;;5037325;28;20060;-87
2023/04/28 00:59:56;;;;;;;0.57;0.57;;;4.00;99.90;;;;;;5037039;28;20061;-87
2023/04/28 01:02:22;;;;;;;0.50;0.50;;;4.00;99.90;;;;;;5037478;28;20369;-80
2023/04/28 01:04:50;;;;;;;0.60;0.60;;;3.90;99.90;;;;;;5021169;28;20045;-86
2023/04/28 01:07:15;;;;;;;0.70;0.70;;;3.90;99.90;;;;;;5037432;28;20045;-85
2023/04/28 01:09:42;;;;;;;0.60;0.60;;;4.00;99.90;;;;;;5037925;28;20414;-87
2023/04/28 01:12:08;;;;;;;0.70;0.70;;;4.40;99.90;;;;;;5037403;28;20209;-86
2023/04/28 01:14:34;;;;;;;0.73;0.73;;;4.10;99.90;;;;;;5037294;28;20152;-85
2023/04/28 01:17:00;;;;;;;0.70;0.70;;;3.90;99.90;;;;;;5036732;28;20045;-86
2023/04/28 01:19:26;;;;;;;0.60;0.60;;;4.70;99.90;;;;;;5036611;28;20088;-87
2023/04/28 01:21:52;;;;;;;0.70;0.70;;;4.00;99.90;;;;;;5037959;28;20057;-85
2023/04/28 01:24:18;;;;;;;0.73;0.73;;;3.90;99.90;;;;;;5036472;28;20125;-86
2023/04/28 01:26:44;;;;;;;0.60;0.60;;;4.10;99.90;;;;;;5053793;28;20059;-84
2023/04/28 01:29:10;;;;;;;0.70;0.70;;;3.90;99.90;;;;;;5020267;28;20076;-88
2023/04/28 01:31:36;;;;;;;0.70;0.70;;;3.90;99.90;;;;;;5052971;28;20461;-85
2023/04/28 01:34:02;;;;;;;0.60;0.60;;;4.00;99.90;;;;;;5036413;28;20531;-87
2023/04/28 01:36:28;;;;;;;0.60;0.60;;;4.00;99.90;;;;;;5037780;28;20053;-86
2023/04/28 01:38:54;;;;;;;0.75;0.75;;;4.00;99.90;;;;;;5004901;28;20527;-87
2023/04/28 01:41:20;;;;;;;;;;;4.30;99.90;;;;;;5036823;28;20118;-84
2023/04/28 01:43:45;;;;;;;0.63;0.63;;;4.10;99.90;;;;;;5036636;28;19960;-86
2023/04/28 01:46:11;;;;;;;0.60;0.60;;;4.20;99.90;;;;;;5020050;28;20041;-88
2023/04/28 01:48:37;;;;;;;0.70;0.70;;;4.30;99.90;;;;;;5020052;28;20077;-85
2023/04/28 01:51:02;;;;;;;0.70;0.70;;;4.40;99.90;;;;;;5036161;28;20128;-87
2023/04/28 01:53:28;;;;;;;0.73;0.73;;;4.10;99.90;;;;;;5036687;28;20052;-86
2023/04/28 01:55:54;;;;;;;0.70;0.70;;;4.20;99.90;;;;;;5036186;28;20556;-85
2023/04/28 01:58:20;;;;;;;0.80;0.80;;;4.20;99.90;;;;;;5036996;28;20049;-85
2023/04/28 02:00:46;;;;;;;0.70;0.70;;;4.20;99.90;;;;;;5037248;28;20110;-86
2023/04/28 02:03:12;;;;;;;1.00;1.00;;;4.20;99.90;;;;;;5053532;28;20051;-83
2023/04/28 02:05:39;;;;;;;0.70;0.70;;;4.20;99.90;;;;;;5019941;28;20128;-84
2023/04/28 02:08:05;;;;;;;0.60;0.60;;;4.30;99.90;;;;;;5036223;28;20056;-86
2023/04/28 02:10:31;;;;;;;0.80;0.80;;;4.50;99.90;;;;;;5035812;28;20041;-87
2023/04/28 02:12:57;;;;;;;0.75;0.75;;;4.50;99.90;;;;;;5036155;28;20060;-85
2023/04/28 02:15:22;;;;;;;0.60;0.60;;;4.40;99.90;;;;;;5036124;28;20096;-83
2023/04/28 02:17:48;;;;;;;0.70;0.70;;;5.00;99.90;;;;;;5036261;28;20037;-86
2023/04/28 02:20:14;;;;;;;1.00;1.00;;;4.50;99.90;;;;;;5034620;28;20057;-85
2023/04/28 02:22:40;;;;;;;0.65;0.65;;;4.50;99.90;;;;;;5034610;28;20049;-84
2023/04/28 02:25:06;;;;;;;;;;;4.50;99.90;;;;;;5036198;28;20119;-86
2023/04/28 02:27:35;;;;;;;0.77;0.77;;;4.50;99.90;;;;;;5035122;28;20288;-85
2023/04/28 02:30:02;;;;;;;1.25;0.93;;;4.70;99.90;;;;;;5034586;28;20050;-86
2023/04/28 02:32:27;;;;;;;0.77;0.77;;;4.60;99.90;;;;;;5034117;28;20104;-83
2023/04/28 02:34:54;;;;;;;0.90;0.85;;;4.60;99.90;;;;;;5035287;28;20049;-83
2023/04/28 02:37:20;;;;;;;1.40;1.40;;;4.60;99.90;;;;;;5034351;28;20079;-86
2023/04/28 02:39:46;;;;;;;0.60;0.60;;;5.60;99.90;;;;;;5018545;28;20041;-85
2023/04/28 02:42:14;;;;;;;0.50;0.50;;;4.60;99.90;;;;;;5034508;28;20045;-86
2023/04/28 02:44:40;;;;;;;0.73;0.73;;;4.60;99.90;;;;;;5035060;28;20101;-85
2023/04/28 02:47:06;;;;;;;0.50;0.50;;;4.60;99.90;;;;;;5034536;28;20179;-86
2023/04/28 02:49:31;;;;;;;0.70;0.70;;;4.60;99.90;;;;;;5035229;28;20445;-82
2023/04/28 02:51:57;;;;;;;0.73;0.73;;;4.60;99.90;;;;;;5034285;28;20423;-83
2023/04/28 02:54:26;;;;;;;0.68;0.68;;;4.80;99.90;;;;;;5034690;28;20053;-85
2023/04/28 02:56:56;;;;;;;0.70;0.70;;;4.60;99.90;;;;;;5035535;28;20064;-85
2023/04/28 02:59:23;;;;;;;0.63;0.63;;;4.60;99.90;;;;;;5051060;28;20053;-86
2023/04/28 03:01:50;;;;;;;0.60;0.60;;;4.50;99.90;;;;;;5038594;28;20102;-86
2023/04/28 03:04:16;;;;;;;0.60;0.60;;;4.50;99.90;;;;;;5055535;28;20093;-84
2023/04/28 03:06:42;;;;;;;0.60;0.60;;;4.60;99.90;;;;;;5021134;28;20474;-87
2023/04/28 03:09:09;;;;;;;0.60;0.60;;;4.70;99.90;;;;;;5039053;28;20033;-84
2023/04/28 03:11:35;;;;;;;0.50;0.50;;;4.60;99.90;;;;;;5055102;28;20049;-86
2023/04/28 03:14:01;;;;;;;1.00;1.00;;;4.60;99.90;;;;;;5038563;28;20480;-85
2023/04/28 03:16:27;;;;;;;2.25;1.60;;;4.70;99.90;;;;;;5037972;28;20138;-86
2023/04/28 03:18:52;;;;;;;0.70;0.70;;;4.60;99.90;;;;;;5038319;28;20517;-85
2023/04/28 03:21:18;;;;;;;1.92;1.83;;;4.90;99.90;;;;;;5038316;28;20546;-86
2023/04/28 03:23:44;;;;;;;0.73;0.73;;;4.80;99.90;;;;;;5039328;28;20068;-84
2023/04/28 03:26:10;;;;;;;0.70;0.70;;;4.80;99.90;;;;;;5038502;28;20045;-86
2023/04/28 03:28:36;;;;;;;1.02;1.02;;;4.90;99.90;;;;;;5038124;28;20046;-82
2023/04/28 03:31:01;;;;;;;0.77;0.77;;;4.90;99.90;;;;;;5038836;28;20049;-82
2023/04/28 03:33:27;;;;;;;0.80;0.80;;;4.90;99.90;;;;;;5038066;28;20373;-84
2023/04/28 03:35:53;;;;;;;0.63;0.63;;;4.90;99.90;;;;;;5021846;28;20452;-84
2023/04/28 03:38:20;;;;;;;2.50;1.80;;;4.90;99.90;;;;;;5053898;28;20041;-84
2023/04/28 03:40:45;;;;;;;0.60;0.60;;;4.90;99.90;;;;;;5037998;28;20060;-84
2023/04/28 03:43:11;;;;;;;0.85;0.85;;;5.00;99.90;;;;;;5038635;28;20034;-83
2023/04/28 03:45:37;;;;;;;0.60;0.60;;;5.00;99.90;;;;;;5054618;28;20045;-81
2023/04/28 03:48:03;;;;;;;0.60;0.60;;;5.10;99.90;;;;;;5038400;28;20053;-84
2023/04/28 03:50:29;;;;;;;0.63;0.63;;;4.90;99.90;;;;;;5038428;28;20045;-86
2023/04/28 03:52:54;;;;;;;0.60;0.60;;;5.10;99.90;;;;;;5037365;28;20107;-87
2023/04/28 03:55:20;;;;;;;0.63;0.63;;;4.90;99.90;;;;;;5038852;28;20049;-85
2023/04/28 03:57:46;;;;;;;0.70;0.70;;;4.90;99.90;;;;;;5039157;28;20048;-84
2023/04/28 04:00:12;;;;;;;0.70;0.70;;;4.90;99.90;;;;;;5037113;28;20049;-82
2023/04/28 04:02:38;;;;;;;0.70;0.70;;;4.90;99.90;;;;;;5021546;28;20045;-82
2023/04/28 04:05:04;;;;;;;1.70;1.13;;;5.50;99.90;;;;;;5037255;28;20052;-86
2023/04/28 04:07:30;;;;;;;0.50;0.50;;;4.80;99.90;;;;;;5037727;28;20465;-82
2023/04/28 04:09:55;;;;;;;0.70;0.70;;;4.90;99.90;;;;;;5037248;28;20052;-86
2023/04/28 04:12:21;;;;;;;0.60;0.60;;;5.40;99.90;;;;;;5037522;28;20128;-84
2023/04/28 04:14:47;;;;;;;0.80;0.80;;;4.90;99.90;;;;;;5038472;28;20045;-85
2023/04/28 04:17:12;;;;;;;2.58;1.92;;;4.80;99.90;;;;;;5037953;28;20052;-83
2023/04/28 04:19:38;;;;;;;0.70;0.70;;;4.90;99.90;;;;;;5037255;28;20051;-81
2023/04/28 04:22:04;;;;;;;0.60;0.60;;;4.90;99.90;;;;;;5037040;28;20067;-86
2023/04/28 04:24:29;;;;;;;0.60;0.60;;;4.90;99.90;;;;;;5004289;28;20045;-85
2023/04/28 04:26:55;;;;;;;0.70;0.70;;;5.00;99.90;;;;;;5036844;28;20048;-86
2023/04/28 04:29:21;;;;;;;0.70;0.70;;;5.00;99.90;;;;;;5036964;28;20057;-84
2023/04/28 04:31:48;;;;;;;0.70;0.70;;;5.00;99.90;;;;;;5036653;28;20087;-86
2023/04/28 04:34:14;;;;;;;0.40;0.40;;;5.00;99.90;;;;;;5036731;28;20049;-87
2023/04/28 04:36:39;;;;;;;0.50;0.50;;;5.10;99.90;;;;;;5037260;28;20053;-82
2023/04/28 04:39:05;;;;;;;0.63;0.63;;;5.70;99.90;;;;;;5036828;28;20099;-87
2023/04/28 04:41:31;;;;;;;0.60;0.60;;;5.10;99.90;;;;;;5037333;28;20042;-86
2023/04/28 04:43:56;;;;;;;0.60;0.60;;;5.30;99.90;;;;;;5037059;28;20074;-88
2023/04/28 04:46:22;;;;;;;1.05;0.90;;;5.10;99.90;;;;;;5036731;28;20060;-87
2023/04/28 04:48:48;;;;;;;0.73;0.73;;;5.20;99.90;;;;;;5036867;28;20500;-86
2023/04/28 04:51:13;;;;;;;0.60;0.60;;;5.20;99.90;;;;;;5036514;28;20103;-87
2023/04/28 04:53:39;;;;;;;0.57;0.57;;;5.20;99.90;;;;;;5036330;28;20380;-86
2023/04/28 04:56:05;;;;;;;0.50;0.50;;;5.20;99.90;;;;;;5037344;28;20053;-85
2023/04/28 04:58:31;;;;;;;;;;;5.30;99.90;;;;;;5038810;28;20056;-83
2023/04/28 05:00:57;;;;;;;0.50;0.50;;;5.30;99.90;;;;;;5053815;28;19939;-85
2023/04/28 05:03:22;;;;;;;0.75;0.75;;;5.30;99.90;;;;;;5036185;28;20045;-86
2023/04/28 05:05:48;;;;;;;0.60;0.60;;;5.30;99.90;;;;;;5038366;28;20046;-81
2023/04/28 05:08:14;;;;;;;0.55;0.55;;;5.40;99.90;;;;;;5037437;28;20460;-85
2023/04/28 05:10:40;;;;;;;0.50;0.50;;;5.40;99.90;;;;;;5037051;28;20041;-85
2023/04/28 05:13:05;;;;;;;0.50;0.50;;;5.40;99.90;;;;;;5037038;28;20045;-85
2023/04/28 05:15:31;;;;;;;0.52;0.52;;;5.50;99.90;;;;;;5035871;28;20105;-82
2023/04/28 05:17:57;;;;;;;0.60;0.60;;;5.50;99.90;;;;;;5036571;28;20032;-85
2023/04/28 05:20:23;;;;;;;0.95;0.95;;;6.10;99.90;;;;;;5019878;28;20103;-86
2023/04/28 05:22:49;;;;;;;0.50;0.50;;;5.50;99.90;;;;;;5052568;28;20107;-83
2023/04/28 05:25:15;;;;;;;;;;;5.60;99.90;;;;;;5036076;28;20049;-84
2023/04/28 05:27:41;;;;;;;0.60;0.60;;;5.60;99.90;;;;;;5053727;28;19947;-85
2023/04/28 05:30:07;;;;;;;1.60;1.52;;;5.60;99.90;;;;;;5036728;28;20060;-87
2023/04/28 05:32:34;;;;;;;0.60;0.60;;;5.60;99.90;;;;;;5035057;28;20506;-83
2023/04/28 05:35:00;;;;;;;0.60;0.60;;;5.60;99.90;;;;;;5036452;28;20132;-85
2023/04/28 05:37:26;;;;;;;0.60;0.60;;;5.60;99.90;;;;;;5036380;28;20136;-84
2023/04/28 05:39:52;;;;;;;0.60;0.60;;;5.70;99.90;;;;;;5052849;28;20045;-83
2023/04/28 05:42:18;;;;;;;0.50;0.50;;;5.70;99.90;;;;;;5035460;28;20168;-86
2023/04/28 05:44:44;;;;;;;0.70;0.70;;;5.80;99.90;;;;;;5019419;28;20124;-84
2023/04/28 05:47:10;;;;;;;;;;;6.30;99.90;;;;;;5036011;28;20053;-87
2023/04/28 05:49:36;;;;;;;0.50;0.50;;;5.90;99.90;;;;;;5035661;28;19921;-85
2023/04/28 05:52:03;;;;;;;0.60;0.60;;;6.00;99.90;;;;;;5052086;28;20136;-86
2023/04/28 05:54:28;;;;;;;0.60;0.60;;;6.10;99.90;;;;;;5051727;28;20022;-89
2023/04/28 05:56:55;;;;;;;0.60;0.60;;;6.10;99.90;;;;;;5036416;28;20048;-86
2023/04/28 05:59:21;;;;;;;0.60;0.60;;;6.20;99.90;;;;;;5035730;28;20041;-85
2023/04/28 06:01:47;;;;;;;0.65;0.65;;;6.30;99.90;;;;;;5019232;28;20037;-86
2023/04/28 06:04:12;;;;;;;0.82;0.82;;;6.30;99.90;;;;;;5035786;28;20063;-88
2023/04/28 06:06:38;;;;;;;0.55;0.55;;;6.40;99.90;;;;;;5035738;28;20125;-86
2023/04/28 06:09:04;;;;;;;0.50;0.50;;;6.40;99.90;;;;;;5035986;28;20053;-85
2023/04/28 06:11:30;;;;;;;0.60;0.60;;;6.40;99.90;;;;;;5037031;28;20049;-86
2023/04/28 06:13:55;;;;;;;;;;;6.50;99.90;;;;;;5035905;28;20107;-86
2023/04/28 06:16:22;;;;;;;0.50;0.50;;;6.70;99.90;;;;;;5019219;28;19925;-86
2023/04/28 06:18:48;;;;;;;0.60;0.60;;;6.60;99.90;;;;;;5019861;28;20103;-83
2023/04/28 06:21:15;;;;;;;0.50;0.50;;;6.60;99.90;;;;;;5019316;28;20053;-85
2023/04/28 06:23:41;;;;;;;0.65;0.65;;;6.70;99.90;;;;;;5036518;28;20057;-88
2023/04/28 06:26:07;;;;;;;0.57;0.57;;;6.80;99.90;;;;;;5035446;28;20383;-88
2023/04/28 06:28:33;;;;;;;0.55;0.55;;;6.80;99.90;;;;;;5035329;28;20553;-87
2023/04/28 06:30:59;;;;;;;0.45;0.45;;;6.90;99.90;;;;;;5036293;28;20127;-82
2023/04/28 06:33:25;;;;;;;0.70;0.70;;;7.00;99.90;;;;;;5036711;28;20045;-86
2023/04/28 06:35:51;;;;;;;0.90;0.90;;;7.30;99.90;;;;;;5052074;28;20048;-86
2023/04/28 06:38:17;;;;;;;0.47;0.47;;;7.20;99.90;;;;;;5018769;28;20042;-85
2023/04/28 06:40:44;;;;;;;0.35;0.35;;;7.30;99.90;;;;;;5035107;28;20049;-87
2023/04/28 06:43:11;;;;;;;0.60;0.60;;;7.50;99.90;;;;;;5034273;28;20060;-87
2023/04/28 06:45:37;;;;;;;0.60;0.60;;;7.60;99.90;;;;;;5019353;28;20041;-86
2023/04/28 06:48:03;;;;;;;;;;;7.70;99.90;;;;;;5018967;28;20049;-86
2023/04/28 06:50:29;;;;;;;0.50;0.50;;;7.80;99.90;;;;;;5035730;28;19921;-85
2023/04/28 06:52:55;;;;;;;0.70;0.70;;;7.90;99.90;;;;;;5036601;28;20600;-82
2023/04/28 06:55:20;;;;;;;1.13;1.13;;;7.90;99.90;;;;;;5019703;28;20362;-84
2023/04/28 06:57:46;;;;;;;0.75;0.75;;;8.00;99.90;;;;;;5035101;28;20096;-86
2023/04/28 07:00:13;;;;;;;0.40;0.40;;;8.00;99.90;;;;;;5034998;28;20084;-86
2023/04/28 07:02:38;;;;;;;0.40;0.40;;;8.10;99.90;;;;;;5034514;28;20095;-88
2023/04/28 07:05:05;;;;;;;3.40;0.70;;;9.00;99.90;;;;;;5035193;28;20041;-87
2023/04/28 07:07:30;;;;;;;;;;;8.20;99.90;;;;;;5018857;28;20045;-86
2023/04/28 07:09:56;;;;;;;1.08;1.08;;;8.20;99.90;;;;;;5033986;28;20012;-82
2023/04/28 07:12:22;;;;;;;0.40;0.40;;;8.30;99.90;;;;;;5035144;28;20091;-86
2023/04/28 07:14:49;;;;;;;0.50;0.50;;;8.40;99.90;;;;;;5033762;28;20540;-85
2023/04/28 07:17:15;;;;;;;0.75;0.75;;;8.40;99.90;;;;;;5034622;28;20102;-86
2023/04/28 07:19:41;;;;;;;;;;;8.50;99.90;;;;;;5019046;28;20093;-86
2023/04/28 07:22:06;;;;;;;0.50;0.50;;;8.60;99.90;;;;;;5017632;28;20217;-85
2023/04/28 07:24:32;;;;;;;0.65;0.65;;;8.70;99.90;;;;;;5033866;28;20052;-86
2023/04/28 07:26:58;;;;;;;0.70;0.70;;;8.90;99.90;;;;;;5033939;28;20339;-83
2023/04/28 07:29:23;;;;;;;0.30;0.30;;;8.90;99.90;;;;;;5035166;28;20103;-85
2023/04/28 07:31:49;;;;;;;0.93;0.93;;;9.00;99.90;;;;;;5032950;28;20396;-89
2023/04/28 07:34:15;;;;;;;0.40;0.40;;;9.10;99.90;;;;;;5017611;28;20497;-86
2023/04/28 07:36:41;;;;;;;0.60;0.60;;;9.00;99.90;;;;;;5033622;28;20050;-86
2023/04/28 07:39:07;;;;;;;0.35;0.35;;;9.00;99.90;;;;;;5018068;28;20049;-86
2023/04/28 07:41:37;;;;;;;0.45;0.45;;;8.90;99.90;;;;;;5033647;28;20053;-88
2023/04/28 07:44:04;;;;;;;0.40;0.40;;;8.90;99.90;;;;;;5033813;28;20144;-86
2023/04/28 07:46:30;;;;;;;0.70;0.70;;;8.80;99.90;;;;;;5034642;28;20049;-86
2023/04/28 07:48:56;;;;;;;0.50;0.50;;;8.80;99.90;;;;;;5053084;28;20052;-86
2023/04/28 07:51:21;;;;;;;0.40;0.40;;;8.90;99.90;;;;;;5037878;28;20091;-85
2023/04/28 07:53:47;;;;;;;0.77;0.77;;;9.00;99.90;;;;;;5037841;28;20414;-86
2023/04/28 07:56:13;;;;;;;0.55;0.55;;;9.00;99.90;;;;;;5038842;28;20132;-85
2023/04/28 07:58:38;;;;;;;0.52;0.52;;;9.10;99.90;;;;;;5055144;28;20103;-85
2023/04/28 08:01:04;;;;;;;0.85;0.85;;;9.10;99.90;;;;;;5037585;28;20044;-87
2023/04/28 08:03:30;;;;;;;0.50;0.50;;;9.10;99.90;;;;;;5021610;28;20065;-84
2023/04/28 08:05:56;;;;;;;0.50;0.50;;;9.10;99.90;;;;;;5036858;28;20396;-88
2023/04/28 08:08:23;;;;;;;0.50;0.50;;;9.10;99.90;;;;;;5037068;28;20053;-86
2023/04/28 08:10:49;;;;;;;;;;;9.10;99.90;;;;;;5038062;28;20053;-87
2023/04/28 08:13:15;;;;;;;0.63;0.63;;;9.10;99.90;;;;;;5037765;28;19996;-87
2023/04/28 08:15:41;;;;;;;0.43;0.43;;;9.20;99.90;;;;;;5037637;28;20029;-87
2023/04/28 08:18:07;;;;;;;1.08;1.08;;;9.20;99.90;;;;;;5020769;28;20045;-87
2023/04/28 08:20:33;;;;;;;0.52;0.52;;;9.10;99.90;;;;;;5039520;28;20408;-81
2023/04/28 08:22:59;;;;;;;0.50;0.50;;;9.00;99.90;;;;;;5036140;28;20049;-89
2023/04/28 08:25:25;;;;;;;1.05;1.05;;;9.00;99.90;;;;;;5022345;28;20111;-86
2023/04/28 08:27:51;;;;;;;0.50;0.50;;;8.90;99.90;;;;;;5037498;28;20045;-86
2023/04/28 08:30:16;;;;;;;0.65;0.65;;;8.80;99.90;;;;;;5037380;28;20054;-86
2023/04/28 08:32:42;;;;;;;0.50;0.50;;;8.90;99.90;;;;;;5036029;28;20076;-87
2023/04/28 08:35:08;;;;;;;0.88;0.88;;;9.00;99.90;;;;;;5036295;28;20098;-87
2023/04/28 08:37:34;;;;;;;0.50;0.50;;;9.00;99.90;;;;;;5038303;28;20419;-83
2023/04/28 08:40:01;;;;;;;0.40;0.40;;;9.10;99.90;;;;;;5038082;28;20060;-83
2023/04/28 08:42:33;;;;;;;0.35;0.35;;;9.20;99.90;;;;;;5036134;28;20050;-87
2023/04/28 08:44:59;;;;;;;0.30;0.30;;;9.30;99.90;;;;;;5053374;28;20080;-85
2023/04/28 08:47:37;;;;;;;0.55;0.50;;;9.30;99.90;;;;;;5035342;28;20037;-85
2023/04/28 08:50:07;;;;;;;0.40;0.40;;;9.30;99.90;;;;;;5052530;28;20056;-87
2023/04/28 08:52:34;;;;;;;0.32;0.32;;;9.40;99.90;;;;;;5052750;28;20053;-86
2023/04/28 08:55:09;;;;;;;0.30;0.30;;;9.40;99.90;;;;;;5053367;28;20097;-84
2023/04/28 08:57:50;;;;;;;0.60;0.60;;;9.40;99.90;;;;;;5036811;28;20045;-83
2023/04/28 09:00:16;;;;;;;0.40;0.40;;;9.40;99.90;;;;;;5036907;28;20085;-85
2023/04/28 09:02:43;;;;;;;;;;;9.50;99.90;;;;;;5037385;28;20105;-87
2023/04/28 09:05:10;;;;;;;0.40;0.40;;;9.60;99.90;;;;;;5035882;28;19960;-87
2023/04/28 09:07:36;;;;;;;0.40;0.40;;;9.70;99.90;;;;;;5035313;28;20057;-85
2023/04/28 09:10:22;;;;;;;0.60;0.60;;;9.80;99.90;;;;;;5035696;28;20029;-87
2023/04/28 09:12:50;;;;;;;0.40;0.40;;;10.00;99.90;;;;;;5036435;28;20125;-87
2023/04/28 09:15:26;;;;;;;0.52;0.52;;;10.20;99.90;;;;;;5052573;28;20489;-83
2023/04/28 09:17:52;;;;;;;0.63;0.63;;;10.40;99.90;;;;;;5037601;28;20125;-86
2023/04/28 09:20:23;;;;;;;0.50;0.50;;;10.70;99.90;;;;;;5035955;28;20091;-87
2023/04/28 09:22:49;;;;;;;0.32;0.32;;;10.90;99.90;;;;;;5018941;28;20054;-86
2023/04/28 09:25:16;;;;;;;1.05;1.05;;;11.00;99.90;;;;;;5037663;28;20041;-89
2023/04/28 09:27:41;;;;;;;0.50;0.50;;;11.10;99.90;;;;;;5019811;28;20465;-85
2023/04/28 09:30:08;;;;;;;0.45;0.45;;;11.10;99.90;;;;;;5034811;28;20055;-83
2023/04/28 09:32:35;;;;;;;0.25;0.25;;;11.30;99.90;;;;;;5018786;28;20133;-87
2023/04/28 09:35:03;;;;;;;0.30;0.30;;;11.40;99.90;;;;;;5018906;28;20064;-86
2023/04/28 09:37:30;;;;;;;0.35;0.35;;;11.40;99.90;;;;;;5036032;28;20557;-82
2023/04/28 09:39:57;;;;;;;0.63;0.63;;;11.40;99.90;;;;;;5035345;28;20119;-83
2023/04/28 09:42:39;;;;;;;0.60;0.60;;;11.40;99.90;;;;;;5036722;28;20064;-84
2023/04/28 09:45:10;;;;;;;0.30;0.30;;;11.40;99.90;;;;;;5051449;28;20053;-88
2023/04/28 09:47:45;;;;;;;0.98;0.95;;;11.50;99.90;;;;;;5035101;28;20085;-87
2023/04/28 09:50:13;;;;;;;0.35;0.35;;;11.50;99.90;;;;;;5035908;28;20049;-82
2023/04/28 09:52:44;;;;;;;0.73;0.73;;;11.60;99.90;;;;;;5034391;28;20041;-87
2023/04/28 09:55:11;;;;;;;0.40;0.40;;;11.70;99.90;;;;;;5035761;28;20126;-82
2023/04/28 09:57:38;;;;;;;0.50;0.50;;;11.80;99.90;;;;;;5036730;28;20055;-86
2023/04/28 10:00:06;;;;;;;0.35;0.35;;;12.00;99.90;;;;;;5038601;28;20053;-85
2023/04/28 10:02:38;;;;;;;1.77;1.67;;;12.40;99.90;;;;;;5053797;28;20071;-87
2023/04/28 10:05:07;;;;;;;4.15;1.48;;;12.80;99.90;;;;;;5037825;28;20045;-87
2023/04/28 10:07:34;;;;;;;0.40;0.40;;;13.10;99.90;;;;;;5036825;28;20448;-83
2023/04/28 10:10:00;;;;;;;0.30;0.30;;;13.50;99.90;;;;;;5036406;28;20084;-81
2023/04/28 10:12:26;;;;;;;1.23;1.23;;;13.70;99.90;;;;;;5053214;28;20046;-85
2023/04/28 10:14:56;;;;;;;0.28;0.28;;;13.80;99.90;;;;;;5040997;28;20128;-83
2023/04/28 10:17:24;;;;;;;3.92;0.63;;;13.90;99.90;;;;;;5037783;28;20056;-84
2023/04/28 10:19:52;;;;;;;0.20;0.20;;;14.00;99.90;;;;;;5055669;28;20049;-83
2023/04/28 10:22:54;;;;;;;0.82;0.82;;;14.00;99.90;;;;;;5053897;28;20033;-84
2023/04/28 10:25:26;;;;;;;1.73;0.90;;;13.90;99.90;;;;;;5054371;28;20099;-85
2023/04/28 10:27:52;;;;;;;0.20;0.20;;;13.90;99.90;;;;;;5052714;28;20046;-88
2023/04/28 10:30:23;;;;;;;1.38;1.38;;;14.00;99.90;;;;;;5062297;28;20037;-90
2023/04/28 10:33:10;;;;;;;2.95;0.90;;;14.10;99.90;;;;;;5054209;28;20114;-89
2023/04/28 10:35:39;;;;;;;0.82;0.82;;;14.10;99.90;;;;;;5036361;28;20065;-85
2023/04/28 10:38:09;;;;;;;0.60;0.60;;;14.30;99.90;;;;;;5036827;28;20057;-86
2023/04/28 10:40:37;;;;;;;0.40;0.40;;;14.50;99.90;;;;;;5035690;28;20112;-85
2023/04/28 10:43:04;;;;;;;0.40;0.40;;;14.60;99.90;;;;;;5037026;28;20544;-83
2023/04/28 10:45:48;;;;;;;2.10;0.73;;;14.70;99.90;;;;;;5035192;28;20124;-84
2023/04/28 10:48:15;;;;;;;0.30;0.30;;;14.60;99.90;;;;;;5036213;28;20064;-81
2023/04/28 10:51:02;;;;;;;0.60;0.60;;;14.40;99.90;;;;;;5035523;28;20140;-85
2023/04/28 10:53:51;;;;;;;0.40;0.40;;;14.30;99.90;;;;;;5035149;28;20191;-86
2023/04/28 10:56:23;;;;;;;0.45;0.45;;;14.30;99.90;;;;;;5024992;28;20115;-83
2023/04/28 10:58:53;;;;;;;0.63;0.63;;;14.30;99.90;;;;;;5035100;28;20052;-85
2023/04/28 11:01:19;;;;;;;0.20;0.20;;;14.10;99.90;;;;;;5036405;28;20084;-87
2023/04/28 11:04:09;;;;;;;0.30;0.30;;;14.10;99.90;;;;;;5036643;28;20049;-86
2023/04/28 11:06:39;;;;;;;0.47;0.47;;;14.00;99.90;;;;;;5033406;28;20038;-87
2023/04/28 11:09:11;;;;;;;0.90;0.90;;;13.80;99.90;;;;;;5052558;28;20049;-87
2023/04/28 11:11:37;;;;;;;0.30;0.30;;;13.60;99.90;;;;;;5034622;28;20037;-85
2023/04/28 11:14:19;;;;;;;0.40;0.40;;;13.40;99.90;;;;;;5034557;28;20053;-82
2023/04/28 11:17:01;;;;;;;0.20;0.20;;;13.20;99.90;;;;;;5034814;28;20513;-85
2023/04/28 11:19:34;;;;;;;0.57;0.45;;;13.00;99.90;;;;;;5035469;28;20099;-86
2023/04/28 11:22:01;;;;;;;2.08;1.05;;;12.90;99.90;;;;;;5052100;28;20053;-84
2023/04/28 11:24:28;;;;;;;0.50;0.50;;;12.80;99.90;;;;;;5055569;28;20050;-85
2023/04/28 11:26:55;;;;;;;0.30;0.30;;;12.70;99.90;;;;;;5038152;28;20045;-82
2023/04/28 11:29:38;;;;;;;0.30;0.30;;;12.70;99.90;;;;;;5038756;28;20088;-81
2023/04/28 11:32:06;;;;;;;0.30;0.30;;;12.70;99.90;;;;;;5037984;28;20052;-85
2023/04/28 11:34:32;;;;;;;0.20;0.20;;;12.80;99.90;;;;;;5038794;28;20392;-85
2023/04/28 11:36:58;;;;;;;0.47;0.47;;;12.80;99.90;;;;;;5038124;28;20049;-86
2023/04/28 11:39:29;;;;;;;0.32;0.32;;;12.90;99.90;;;;;;5022244;28;20045;-85
2023/04/28 11:41:59;;;;;;;0.73;0.70;;;12.90;99.90;;;;;;5038586;28;20133;-86
2023/04/28 11:44:28;;;;;;;0.30;0.30;;;13.00;99.90;;;;;;5055113;28;20041;-83
2023/04/28 11:46:59;;;;;;;0.40;0.40;;;13.00;99.90;;;;;;5039277;28;20079;-85
2023/04/28 11:49:51;;;;;;;0.35;0.35;;;13.10;99.90;;;;;;5038705;28;20045;-85
2023/04/28 11:52:17;;;;;;;0.20;0.20;;;13.20;99.90;;;;;;5035621;28;20416;-86
2023/04/28 11:54:43;;;;;;;0.20;0.20;;;13.40;99.90;;;;;;5022096;28;20041;-87
2023/04/28 11:57:20;;;;;;;0.30;0.30;;;13.60;99.90;;;;;;5039410;28;20045;-86
2023/04/28 11:59:46;;;;;;;0.52;0.50;;;13.70;99.90;;;;;;5038725;28;20049;-85
2023/04/28 12:02:11;;;;;;;;;;;13.70;99.90;;;;;;5038387;28;20050;-87
2023/04/28 12:04:41;;;;;;;0.30;0.30;;;13.70;99.90;;;;;;5037818;28;19921;-87
2023/04/28 12:07:18;;;;;;;1.27;0.55;;;13.60;99.90;;;;;;5037097;28;20128;-85
2023/04/28 12:10:08;;;;;;;0.32;0.32;;;13.50;99.90;;;;;;5053334;28;20128;-85
2023/04/28 12:12:34;;;;;;;0.30;0.30;;;13.40;99.90;;;;;;5037604;28;20432;-86
2023/04/28 12:15:05;;;;;;;0.50;0.50;;;13.30;99.90;;;;;;5037290;28;20061;-86
2023/04/28 12:17:49;;;;;;;0.30;0.30;;;13.30;99.90;;;;;;5053438;28;20062;-83
2023/04/28 12:20:35;;;;;;;0.40;0.40;;;13.20;99.90;;;;;;5037633;28;20081;-86
2023/04/28 12:23:01;;;;;;;0.28;0.28;;;13.20;99.90;;;;;;5053387;28;20045;-85
2023/04/28 12:25:27;;;;;;;;;;;13.10;99.90;;;;;;5038757;28;20053;-86
2023/04/28 12:28:06;;;;;;;0.30;0.30;;;13.00;99.90;;;;;;5038173;28;19925;-83
2023/04/28 12:30:34;;;;;;;0.30;0.30;;;12.90;99.90;;;;;;5035677;28;20100;-87
2023/04/28 12:33:00;;;;;;;0.30;0.30;;;12.90;99.90;;;;;;5038114;28;20088;-82
2023/04/28 12:35:27;;;;;;;0.30;0.30;;;12.80;99.90;;;;;;5038360;28;20044;-87
2023/04/28 12:37:55;;;;;;;0.30;0.30;;;12.70;99.90;;;;;;5054426;28;20047;-85
2023/04/28 12:40:20;;;;;;;0.32;0.32;;;12.60;99.90;;;;;;5037192;28;20088;-82
2023/04/28 12:42:46;;;;;;;0.30;0.30;;;12.60;99.90;;;;;;5036953;28;20364;-85
2023/04/28 12:45:12;;;;;;;;;;;12.60;99.90;;;;;;5036914;28;20086;-86
2023/04/28 12:47:38;;;;;;;0.35;0.35;;;12.50;99.90;;;;;;5036157;28;19987;-86
2023/04/28 12:50:05;;;;;;;0.30;0.30;;;12.50;99.90;;;;;;5036785;28;20030;-88
2023/04/28 12:52:34;;;;;;;0.30;0.30;;;12.40;99.90;;;;;;5036989;28;20054;-86
2023/04/28 12:55:01;;;;;;;0.40;0.40;;;12.40;99.90;;;;;;5036512;28;20056;-86
2023/04/28 12:57:27;;;;;;;0.30;0.30;;;12.50;99.90;;;;;;5036096;28;20494;-80
2023/04/28 12:59:55;;;;;;;0.63;0.63;;;12.60;99.90;;;;;;5035434;28;20435;-86